createdAt,value
2022-12-11T00:02:16.896Z,89.76
2022-12-11T00:05:40.513Z,89.62
2022-12-11T00:09:04.488Z,90.04
2022-12-11T00:12:31.025Z,89.71
2022-12-11T00:15:53.261Z,89.15
2022-12-11T00:19:15.021Z,89.39
2022-12-11T00:22:37.509Z,89.93
2022-12-11T00:25:59.322Z,90.31
2022-12-11T00:29:22.385Z,89.99
2022-12-11T00:32:44.479Z,90.07
2022-12-11T00:36:12.743Z,90.17
2022-12-11T00:39:34.499Z,90.29
2022-12-11T00:42:56.108Z,91.26
2022-12-11T00:46:19.476Z,91.10
2022-12-11T00:49:45.182Z,91.02
2022-12-11T00:53:11.538Z,90.86
2022-12-11T00:56:33.578Z,91.60
2022-12-11T00:59:55.716Z,91.60
2022-12-11T01:03:19.372Z,90.32
2022-12-11T01:06:41.271Z,91.28
2022-12-11T01:10:20.654Z,91.70
2022-12-11T01:13:44.509Z,90.85
2022-12-11T01:17:06.370Z,91.84
2022-12-11T01:20:29.861Z,90.81
2022-12-11T01:23:51.959Z,91.37
2022-12-11T01:27:13.522Z,91.14
2022-12-11T01:30:35.964Z,91.58
2022-12-11T01:33:58.237Z,90.82
2022-12-11T01:37:21.592Z,91.42
2022-12-11T01:40:53.205Z,90.76
2022-12-11T01:44:48.032Z,90.95
2022-12-11T01:48:12.775Z,91.96
2022-12-11T01:51:38.630Z,91.40
2022-12-11T01:55:02.519Z,91.02
2022-12-11T01:58:28.841Z,91.74
2022-12-11T02:01:56.318Z,91.06
2022-12-11T02:05:21.259Z,90.94
2022-12-11T02:08:42.887Z,90.82
2022-12-11T02:12:16.614Z,91.04
2022-12-11T02:15:48.646Z,91.46
2022-12-11T02:19:23.094Z,90.59
2022-12-11T02:23:26.110Z,90.71
2022-12-11T02:27:09.930Z,91.54
2022-12-11T02:30:34.700Z,90.96
2022-12-11T02:34:02.511Z,90.95
2022-12-11T02:37:31.554Z,91.79
2022-12-11T02:40:56.786Z,91.05
2022-12-11T02:44:24.703Z,90.76
2022-12-11T02:47:50.499Z,91.29
2022-12-11T02:51:15.562Z,90.94
2022-12-11T02:54:40.821Z,91.38
2022-12-11T02:58:08.816Z,90.22
2022-12-11T03:01:31.081Z,91.30
2022-12-11T03:04:54.554Z,90.78
2022-12-11T03:08:17.999Z,90.42
2022-12-11T03:11:39.644Z,90.73
2022-12-11T03:15:04.220Z,90.85
2022-12-11T03:18:32.320Z,90.01
2022-12-11T03:22:01.766Z,90.46
2022-12-11T03:25:27.613Z,90.66
2022-12-11T03:28:52.427Z,91.33
2022-12-11T03:32:20.028Z,90.53
2022-12-11T03:35:44.267Z,90.03
2022-12-11T03:39:11.891Z,89.99
2022-12-11T03:42:36.851Z,89.66
2022-12-11T03:46:00.747Z,89.77
2022-12-11T03:49:27.435Z,90.83
2022-12-11T03:52:51.122Z,90.18
2022-12-11T03:56:21.528Z,90.30
2022-12-11T03:59:43.426Z,90.82
2022-12-11T04:03:18.047Z,90.56
2022-12-11T04:06:39.773Z,90.92
2022-12-11T04:10:01.989Z,89.96
2022-12-11T04:13:25.307Z,90.89
2022-12-11T04:16:45.855Z,90.97
2022-12-11T04:20:26.618Z,90.55
2022-12-11T04:24:05.648Z,89.97
2022-12-11T04:27:45.551Z,90.29
2022-12-11T04:31:13.015Z,90.67
2022-12-11T04:34:34.971Z,90.97
2022-12-11T04:37:56.842Z,91.17
2022-12-11T04:41:18.688Z,90.61
2022-12-11T04:44:40.466Z,90.96
2022-12-11T04:48:03.801Z,90.51
2022-12-11T04:51:26.039Z,90.28
2022-12-11T04:54:48.187Z,89.77
2022-12-11T04:58:10.186Z,90.21
2022-12-11T05:01:32.286Z,91.29
2022-12-11T05:04:55.822Z,90.33
2022-12-11T05:08:17.640Z,90.24
2022-12-11T05:11:40.133Z,90.32
2022-12-11T05:15:02.629Z,91.21
2022-12-11T05:18:24.680Z,90.77
2022-12-11T05:21:47.916Z,90.73
2022-12-11T05:25:11.277Z,90.93
2022-12-11T05:28:34.775Z,89.77
2022-12-11T05:31:56.514Z,90.97
2022-12-11T05:35:18.680Z,90.33
2022-12-11T05:38:41.681Z,90.37
2022-12-11T05:42:03.718Z,91.31
2022-12-11T05:45:25.509Z,91.49
2022-12-11T05:48:49.982Z,91.55
2022-12-11T05:52:12.044Z,91.95
2022-12-11T05:55:37.459Z,91.51
2022-12-11T05:59:00.075Z,91.33
2022-12-11T06:02:21.863Z,91.12
2022-12-11T06:05:44.319Z,91.90
2022-12-11T06:09:07.641Z,92.24
2022-12-11T06:12:31.216Z,92.27
2022-12-11T06:15:53.013Z,91.66
2022-12-11T06:19:18.681Z,92.19
2022-12-11T06:22:40.436Z,91.87
2022-12-11T06:26:04.499Z,91.91
2022-12-11T06:29:27.709Z,92.30
2022-12-11T06:32:49.821Z,92.47
2022-12-11T06:36:13.585Z,91.90
2022-12-11T06:39:38.337Z,91.33
2022-12-11T06:43:00.075Z,91.25
2022-12-11T06:46:23.553Z,91.61
2022-12-11T06:49:45.046Z,91.88
2022-12-11T06:53:06.792Z,91.91
2022-12-11T06:56:54.036Z,91.49
2022-12-11T07:00:17.217Z,91.82
2022-12-11T07:03:40.291Z,91.59
2022-12-11T07:07:03.246Z,91.83
2022-12-11T07:10:25.604Z,92.25
2022-12-11T07:13:47.774Z,91.68
2022-12-11T07:17:09.609Z,91.79
2022-12-11T07:20:33.016Z,91.82
2022-12-11T07:23:54.836Z,91.18
2022-12-11T07:27:16.815Z,92.07
2022-12-11T07:30:39.655Z,91.44
2022-12-11T07:34:03.937Z,91.47
2022-12-11T07:37:27.996Z,91.50
2022-12-11T07:40:49.722Z,92.09
2022-12-11T07:44:13.029Z,91.66
2022-12-11T07:47:35.339Z,92.07
2022-12-11T07:50:57.013Z,92.19
2022-12-11T07:54:22.670Z,91.29
2022-12-11T07:57:44.853Z,92.04
2022-12-11T08:01:07.516Z,92.05
2022-12-11T08:04:29.531Z,91.56
2022-12-11T08:07:51.128Z,92.17
2022-12-11T08:11:18.207Z,91.94
2022-12-11T08:14:39.824Z,91.31
2022-12-11T08:18:01.598Z,91.97
2022-12-11T08:21:25.435Z,91.59
2022-12-11T08:24:48.302Z,91.71
2022-12-11T08:28:11.506Z,91.83
2022-12-11T08:31:33.367Z,92.60
2022-12-11T08:34:55.369Z,91.75
2022-12-11T08:38:20.953Z,92.07
2022-12-11T08:41:47.536Z,91.81
2022-12-11T08:45:12.067Z,91.79
2022-12-11T08:48:34.061Z,91.56
2022-12-11T08:51:55.996Z,91.93
2022-12-11T08:55:17.784Z,91.97
2022-12-11T08:58:40.278Z,92.01
2022-12-11T09:02:03.265Z,92.01
2022-12-11T09:05:24.963Z,91.77
2022-12-11T09:08:52.291Z,92.08
2022-12-11T09:12:15.202Z,92.41
2022-12-11T09:15:38.308Z,92.33
2022-12-11T09:19:02.177Z,92.68
2022-12-11T09:22:24.208Z,92.52
2022-12-11T09:25:46.248Z,92.92
2022-12-11T09:29:08.190Z,93.14
2022-12-11T09:32:30.659Z,93.56
2022-12-11T09:36:00.230Z,93.42
2022-12-11T09:39:22.506Z,93.50
2022-12-11T09:42:59.548Z,93.88
2022-12-11T09:46:24.707Z,94.06
2022-12-11T09:49:48.948Z,93.90
2022-12-11T09:53:17.615Z,93.95
2022-12-11T09:56:47.740Z,93.95
2022-12-11T10:00:18.915Z,93.92
2022-12-11T10:03:53.123Z,93.68
2022-12-11T10:07:19.729Z,94.11
2022-12-11T10:10:47.470Z,93.86
2022-12-11T10:14:19.995Z,94.26
2022-12-11T10:17:44.776Z,94.12
2022-12-11T10:21:07.557Z,93.99
2022-12-11T10:28:22.600Z,94.25
2022-12-11T10:31:51.569Z,94.46
2022-12-11T10:35:21.063Z,94.47
2022-12-11T10:38:46.039Z,94.91
2022-12-11T10:42:17.754Z,94.72
2022-12-11T10:45:41.708Z,94.71
2022-12-11T10:49:03.632Z,94.81
2022-12-11T10:52:28.039Z,94.74
2022-12-11T10:55:50.945Z,94.53
2022-12-11T10:59:25.246Z,95.06
2022-12-11T11:02:48.664Z,94.85
2022-12-11T11:06:18.709Z,95.15
2022-12-11T11:09:43.869Z,94.80
2022-12-11T11:13:05.911Z,95.09
2022-12-11T11:16:27.960Z,95.04
2022-12-11T11:19:51.368Z,94.51
2022-12-11T11:23:16.450Z,94.94
2022-12-11T11:27:11.573Z,95.07
2022-12-11T11:30:27.075Z,95.10
2022-12-11T11:33:57.199Z,95.06
2022-12-11T11:37:31.565Z,94.89
2022-12-11T11:41:05.625Z,94.95
2022-12-11T11:44:37.675Z,94.95
2022-12-11T11:48:11.462Z,94.94
2022-12-11T11:51:41.174Z,94.34
2022-12-11T11:55:10.904Z,94.39
2022-12-11T11:58:41.282Z,94.90
2022-12-11T12:02:02.862Z,94.64
2022-12-11T12:05:33.079Z,95.13
2022-12-11T12:09:01.057Z,94.87
2022-12-11T12:12:37.200Z,94.69
2022-12-11T12:16:04.991Z,95.18
2022-12-11T12:19:44.512Z,95.30
2022-12-11T12:23:37.518Z,95.28
2022-12-11T12:27:13.436Z,95.38
2022-12-11T12:30:59.280Z,95.64
2022-12-11T12:34:33.836Z,95.72
2022-12-11T12:38:01.585Z,95.75
2022-12-11T12:41:29.843Z,96.42
2022-12-11T12:44:59.883Z,96.32
2022-12-11T12:48:26.281Z,96.37
2022-12-11T12:51:48.933Z,96.23
2022-12-11T12:55:23.124Z,96.08
2022-12-11T12:58:49.182Z,96.32
2022-12-11T13:02:19.931Z,96.15
2022-12-11T13:05:45.961Z,96.15
2022-12-11T13:09:18.651Z,95.95
2022-12-11T13:12:47.759Z,96.07
2022-12-11T13:16:26.928Z,96.02
2022-12-11T13:19:50.040Z,96.14
2022-12-11T13:23:20.543Z,96.06
2022-12-11T13:26:42.645Z,96.31
2022-12-11T13:30:22.310Z,96.27
2022-12-11T13:33:47.283Z,96.92
2022-12-11T13:37:26.045Z,96.67
2022-12-11T13:40:55.000Z,96.18
2022-12-11T13:44:23.000Z,96.43
2022-12-11T13:47:46.260Z,96.07
2022-12-11T13:51:08.771Z,96.25
2022-12-11T13:54:31.955Z,96.17
2022-12-11T13:57:55.276Z,95.99
2022-12-11T14:01:22.246Z,96.18
2022-12-11T14:04:44.516Z,95.80
2022-12-11T14:08:10.754Z,95.94
2022-12-11T14:11:36.886Z,95.42
2022-12-11T14:15:03.345Z,95.02
2022-12-11T14:18:28.557Z,94.78
2022-12-11T14:21:58.548Z,95.01
2022-12-11T14:25:25.066Z,94.45
2022-12-11T14:28:47.106Z,94.50
2022-12-11T14:32:10.723Z,94.13
2022-12-11T14:35:38.880Z,94.28
2022-12-11T14:39:05.001Z,94.29
2022-12-11T14:42:31.851Z,94.22
2022-12-11T14:45:59.365Z,93.76
2022-12-11T14:49:27.581Z,94.02
2022-12-11T14:52:53.687Z,93.95
2022-12-11T14:56:20.620Z,93.68
2022-12-11T14:59:47.504Z,93.83
2022-12-11T15:03:23.821Z,93.45
2022-12-11T15:06:49.126Z,93.93
2022-12-11T15:10:24.389Z,93.67
2022-12-11T15:13:52.764Z,93.14
2022-12-11T15:17:16.406Z,93.65
2022-12-11T15:20:38.864Z,93.56
2022-12-11T15:24:04.887Z,93.85
2022-12-11T15:27:33.619Z,93.44
2022-12-11T15:30:58.127Z,93.54
2022-12-11T15:34:24.239Z,93.85
2022-12-11T15:37:54.261Z,93.75
2022-12-11T15:41:21.240Z,93.82
2022-12-11T15:44:43.776Z,93.93
2022-12-11T15:48:06.222Z,93.75
2022-12-11T15:51:29.278Z,93.79
2022-12-11T15:54:51.313Z,93.71
2022-12-11T15:58:20.007Z,93.60
2022-12-11T16:01:42.168Z,93.49
2022-12-11T16:05:03.907Z,93.32
2022-12-11T16:08:26.414Z,93.48
2022-12-11T16:11:48.179Z,93.38
2022-12-11T16:15:17.498Z,93.14
2022-12-11T16:18:43.512Z,93.42
2022-12-11T16:22:05.799Z,93.24
2022-12-11T16:25:31.830Z,93.60
2022-12-11T16:28:56.035Z,93.42
2022-12-11T16:32:19.392Z,93.66
2022-12-11T16:35:41.876Z,93.25
2022-12-11T16:39:04.130Z,93.56
2022-12-11T16:42:26.161Z,93.44
2022-12-11T16:45:48.116Z,93.36
2022-12-11T16:49:11.484Z,93.76
2022-12-11T16:52:33.664Z,93.99
2022-12-11T16:55:55.625Z,93.49
2022-12-11T16:59:17.559Z,93.44
2022-12-11T17:02:39.550Z,93.75
2022-12-11T17:06:02.919Z,94.08
2022-12-11T17:09:28.713Z,93.89
2022-12-11T17:12:50.888Z,94.17
2022-12-11T17:16:14.900Z,94.50
2022-12-11T17:19:37.392Z,94.30
2022-12-11T17:23:02.192Z,94.41
2022-12-11T17:26:25.398Z,94.09
2022-12-11T17:29:49.607Z,94.52
2022-12-11T17:33:12.362Z,94.20
2022-12-11T17:36:36.645Z,94.41
2022-12-11T17:39:59.746Z,94.60
2022-12-11T17:43:21.545Z,94.63
2022-12-11T17:46:43.290Z,94.63
2022-12-11T17:50:07.039Z,94.00
2022-12-11T17:53:28.762Z,94.16
2022-12-11T17:56:53.911Z,94.70
2022-12-11T18:00:17.561Z,94.49
2022-12-11T18:03:39.328Z,94.71
2022-12-11T18:07:01.603Z,94.76
2022-12-11T18:10:26.009Z,95.12
2022-12-11T18:13:50.251Z,94.67
2022-12-11T18:17:12.389Z,94.70
2022-12-11T18:20:36.029Z,94.85
2022-12-11T18:23:58.129Z,94.70
2022-12-11T18:27:19.835Z,94.99
2022-12-11T18:30:43.311Z,95.09
2022-12-11T18:34:06.233Z,95.10
2022-12-11T18:37:28.350Z,94.93
2022-12-11T18:40:50.329Z,95.37
2022-12-11T18:44:12.323Z,95.25
2022-12-11T18:47:35.882Z,95.33
2022-12-11T18:50:57.673Z,95.17
2022-12-11T18:54:19.935Z,94.84
2022-12-11T18:57:42.088Z,95.44
2022-12-11T19:01:08.446Z,95.36
2022-12-11T19:04:32.098Z,95.47
2022-12-11T19:07:54.248Z,95.30
2022-12-11T19:11:17.290Z,95.23
2022-12-11T19:14:39.135Z,95.62
2022-12-11T19:18:01.204Z,95.52
2022-12-11T19:21:24.850Z,95.61
2022-12-11T19:24:46.813Z,95.61
2022-12-11T19:28:08.603Z,95.69
2022-12-11T19:31:32.870Z,95.89
2022-12-11T19:34:55.199Z,95.50
2022-12-11T19:38:18.498Z,95.49
2022-12-11T19:41:40.675Z,95.65
2022-12-11T19:45:04.187Z,95.63
2022-12-11T19:48:26.300Z,95.39
2022-12-11T19:51:48.466Z,95.38
2022-12-11T19:55:15.090Z,95.78
2022-12-11T19:58:37.281Z,95.65
2022-12-11T20:01:59.163Z,95.60
2022-12-11T20:05:21.215Z,95.43
2022-12-11T20:08:45.666Z,95.25
2022-12-11T20:12:10.635Z,95.63
2022-12-11T20:15:33.031Z,95.67
2022-12-11T20:18:55.938Z,95.54
2022-12-11T20:22:18.046Z,95.65
2022-12-11T20:25:40.531Z,95.25
2022-12-11T20:29:07.330Z,95.37
2022-12-11T20:32:30.206Z,95.28
2022-12-11T20:35:52.139Z,94.97
2022-12-11T20:39:15.184Z,94.84
2022-12-11T20:42:37.169Z,95.01
2022-12-11T20:46:01.324Z,94.97
2022-12-11T20:49:23.392Z,94.81
2022-12-11T20:52:45.483Z,94.31
2022-12-11T20:56:11.204Z,94.62
2022-12-11T20:59:33.259Z,94.32
2022-12-11T21:02:57.375Z,94.22
2022-12-11T21:06:20.489Z,94.30
2022-12-11T21:09:42.420Z,93.85
2022-12-11T21:13:04.696Z,94.16
2022-12-11T21:16:26.829Z,93.44
2022-12-11T21:19:50.622Z,93.56
2022-12-11T21:23:12.850Z,93.43
2022-12-11T21:26:35.008Z,93.59
2022-12-11T21:29:57.433Z,93.22
2022-12-11T21:33:19.284Z,93.71
2022-12-11T21:36:44.080Z,93.05
2022-12-11T21:40:06.903Z,93.41
2022-12-11T21:43:28.892Z,93.02
2022-12-11T21:46:50.917Z,93.36
2022-12-11T21:50:13.003Z,93.34
2022-12-11T21:53:35.909Z,93.08
2022-12-11T21:56:57.991Z,93.07
2022-12-11T22:00:20.264Z,92.75
2022-12-11T22:03:42.306Z,93.37
2022-12-11T22:07:03.854Z,93.29
2022-12-11T22:10:27.291Z,93.11
2022-12-11T22:13:49.485Z,92.89
2022-12-11T22:17:11.351Z,93.00
2022-12-11T22:20:33.521Z,92.89
2022-12-11T22:23:55.578Z,92.51
2022-12-11T22:27:23.482Z,92.88
2022-12-11T22:30:48.013Z,92.35
2022-12-11T22:34:09.769Z,93.00
2022-12-11T22:37:32.155Z,93.00
2022-12-11T22:40:55.198Z,92.65
2022-12-11T22:44:20.633Z,92.76
2022-12-11T22:47:42.589Z,92.72
2022-12-11T22:51:06.534Z,92.40
2022-12-11T22:54:28.428Z,92.65
2022-12-11T22:57:50.181Z,92.59
2022-12-11T23:01:16.684Z,92.79
2022-12-11T23:04:38.774Z,92.23
2022-12-11T23:08:00.638Z,92.44
2022-12-11T23:11:26.466Z,92.68
2022-12-11T23:14:48.143Z,92.70
2022-12-11T23:18:11.468Z,92.39
2022-12-11T23:21:36.766Z,92.62
2022-12-11T23:24:58.650Z,92.52
2022-12-11T23:28:21.065Z,92.78
2022-12-11T23:31:43.046Z,92.25
2022-12-11T23:35:07.066Z,92.63
2022-12-11T23:38:28.974Z,92.61
2022-12-11T23:41:53.844Z,93.13
2022-12-11T23:45:15.666Z,92.75
2022-12-11T23:48:37.611Z,92.62
2022-12-11T23:52:01.221Z,92.89
2022-12-11T23:55:25.529Z,93.06
2022-12-11T23:58:47.511Z,92.77
